createdAt,value
2023-08-15T00:00:11.343Z,0.00
2023-08-15T00:01:06.469Z,0.00
2023-08-15T00:02:02.310Z,0.00
2023-08-15T00:02:57.632Z,0.00
2023-08-15T00:03:53.493Z,0.00
2023-08-15T00:04:48.406Z,0.00
2023-08-15T00:05:43.636Z,0.00
2023-08-15T00:06:39.542Z,0.00
2023-08-15T00:07:34.636Z,0.00
2023-08-15T00:08:29.906Z,0.00
2023-08-15T00:09:26.371Z,0.00
2023-08-15T00:10:21.421Z,0.00
2023-08-15T00:11:17.512Z,0.00
2023-08-15T00:12:12.522Z,0.00
2023-08-15T00:13:07.883Z,0.00
2023-08-15T00:14:03.590Z,0.00
2023-08-15T00:14:58.750Z,0.00
2023-08-15T00:15:54.496Z,0.00
2023-08-15T00:16:49.885Z,0.00
2023-08-15T00:17:44.963Z,0.00
2023-08-15T00:18:40.630Z,0.00
2023-08-15T00:19:35.794Z,0.00
2023-08-15T00:20:31.006Z,0.00
2023-08-15T00:21:27.373Z,0.00
2023-08-15T00:22:22.351Z,0.00
2023-08-15T00:23:18.095Z,0.00
2023-08-15T00:24:13.270Z,0.00
2023-08-15T00:25:08.361Z,0.00
2023-08-15T00:26:04.141Z,0.00
2023-08-15T00:26:59.227Z,0.00
2023-08-15T00:27:54.979Z,0.00
2023-08-15T00:28:50.133Z,0.00
2023-08-15T00:29:45.385Z,0.00
2023-08-15T00:30:41.133Z,0.00
2023-08-15T00:31:36.355Z,0.00
2023-08-15T00:32:31.547Z,0.00
2023-08-15T00:33:27.835Z,0.00
2023-08-15T00:34:23.065Z,0.00
2023-08-15T00:35:18.813Z,0.00
2023-08-15T00:36:14.185Z,0.00
2023-08-15T00:37:09.243Z,0.00
2023-08-15T00:38:05.015Z,0.00
2023-08-15T00:39:00.223Z,0.00
2023-08-15T00:39:56.080Z,0.00
2023-08-15T00:40:51.176Z,0.00
2023-08-15T00:41:46.663Z,0.00
2023-08-15T00:42:41.729Z,0.00
2023-08-15T00:43:36.858Z,0.00
2023-08-15T00:44:33.294Z,0.00
2023-08-15T00:45:28.418Z,0.00
2023-08-15T00:46:24.416Z,0.00
2023-08-15T00:47:19.612Z,0.00
2023-08-15T00:48:14.903Z,0.00
2023-08-15T00:49:10.492Z,0.00
2023-08-15T00:50:05.734Z,0.00
2023-08-15T00:51:01.483Z,0.00
2023-08-15T00:51:56.665Z,0.00
2023-08-15T00:52:51.904Z,0.00
2023-08-15T00:53:47.651Z,0.00
2023-08-15T00:54:42.847Z,0.00
2023-08-15T00:55:38.034Z,0.00
2023-08-15T00:56:34.385Z,0.00
2023-08-15T00:57:29.589Z,0.00
2023-08-15T00:58:25.335Z,0.00
2023-08-15T00:59:20.541Z,0.00
2023-08-15T01:00:15.736Z,0.00
2023-08-15T01:01:11.078Z,0.00
2023-08-15T01:02:06.044Z,0.00
2023-08-15T01:03:01.290Z,0.00
2023-08-15T01:03:56.487Z,0.00
2023-08-15T01:04:52.131Z,0.00
2023-08-15T01:05:47.333Z,0.00
2023-08-15T01:06:42.720Z,0.00
2023-08-15T01:07:38.325Z,0.00
2023-08-15T01:08:33.639Z,0.00
2023-08-15T01:09:28.705Z,0.00
2023-08-15T01:10:23.893Z,0.00
2023-08-15T01:11:19.111Z,0.00
2023-08-15T01:12:14.062Z,0.00
2023-08-15T01:13:09.089Z,0.00
2023-08-15T01:14:04.184Z,0.00
2023-08-15T01:14:59.218Z,0.00
2023-08-15T01:15:54.283Z,0.00
2023-08-15T01:16:49.521Z,0.00
2023-08-15T01:17:44.497Z,0.00
2023-08-15T01:18:39.406Z,0.00
2023-08-15T01:19:34.479Z,0.00
2023-08-15T01:20:29.627Z,0.00
2023-08-15T01:21:24.901Z,0.00
2023-08-15T01:22:19.665Z,0.00
2023-08-15T01:23:14.700Z,0.00
2023-08-15T01:24:09.757Z,0.00
2023-08-15T01:25:04.976Z,0.00
2023-08-15T01:26:00.024Z,0.00
2023-08-15T01:26:55.242Z,0.00
2023-08-15T01:27:50.534Z,0.00
2023-08-15T01:28:45.629Z,0.00
2023-08-15T01:29:40.773Z,0.00
2023-08-15T01:30:35.849Z,0.00
2023-08-15T01:31:30.944Z,0.00
2023-08-15T01:32:26.095Z,0.00
2023-08-15T01:33:24.728Z,0.00
2023-08-15T01:34:19.801Z,0.00
2023-08-15T01:35:14.964Z,0.00
2023-08-15T01:36:10.170Z,0.00
2023-08-15T01:37:05.517Z,0.00
2023-08-15T01:38:00.569Z,0.00
2023-08-15T01:38:55.769Z,0.00
2023-08-15T01:39:50.954Z,0.00
2023-08-15T01:40:46.001Z,0.00
2023-08-15T01:41:41.232Z,0.00
2023-08-15T01:42:36.364Z,0.00
2023-08-15T01:43:31.720Z,0.00
2023-08-15T01:44:26.793Z,0.00
2023-08-15T01:45:21.967Z,0.00
2023-08-15T01:46:17.239Z,0.00
2023-08-15T01:47:12.646Z,0.00
2023-08-15T01:48:07.561Z,0.00
2023-08-15T01:49:02.637Z,0.00
2023-08-15T01:49:57.692Z,0.00
2023-08-15T01:50:52.754Z,0.00
2023-08-15T01:51:48.127Z,0.00
2023-08-15T01:52:42.954Z,0.00
2023-08-15T01:53:38.024Z,0.00
2023-08-15T01:54:33.235Z,0.00
2023-08-15T01:55:28.297Z,0.00
2023-08-15T01:56:23.461Z,0.00
2023-08-15T01:57:18.820Z,0.00
2023-08-15T01:58:13.655Z,0.00
2023-08-15T01:59:08.676Z,0.00
2023-08-15T02:00:03.761Z,0.00
2023-08-15T02:00:58.786Z,0.00
2023-08-15T02:01:53.834Z,0.00
2023-08-15T02:02:49.032Z,0.00
2023-08-15T02:03:43.915Z,0.00
2023-08-15T02:04:38.914Z,0.00
2023-08-15T02:05:36.091Z,0.00
2023-08-15T02:06:29.121Z,0.00
2023-08-15T02:07:24.299Z,0.00
2023-08-15T02:08:19.496Z,0.00
2023-08-15T02:09:14.731Z,0.00
2023-08-15T02:10:10.023Z,0.00
2023-08-15T02:11:05.173Z,0.00
2023-08-15T02:12:00.181Z,0.00
2023-08-15T02:12:55.315Z,0.00
2023-08-15T02:13:51.175Z,0.00
2023-08-15T02:14:46.410Z,0.00
2023-08-15T02:15:42.201Z,0.00
2023-08-15T02:16:37.416Z,0.00
2023-08-15T02:17:32.781Z,0.00
2023-08-15T02:18:28.582Z,0.00
2023-08-15T02:19:23.616Z,0.00
2023-08-15T02:20:18.828Z,0.00
2023-08-15T02:21:14.994Z,0.00
2023-08-15T02:22:10.220Z,0.00
2023-08-15T02:23:05.972Z,0.00
2023-08-15T02:24:01.148Z,0.00
2023-08-15T02:24:56.212Z,0.00
2023-08-15T02:25:52.097Z,0.00
2023-08-15T02:26:47.326Z,0.00
2023-08-15T02:27:43.071Z,0.00
2023-08-15T02:28:38.270Z,0.00
2023-08-15T02:29:33.479Z,0.00
2023-08-15T02:30:29.402Z,0.00
2023-08-15T02:31:24.522Z,0.00
2023-08-15T02:32:19.717Z,0.00
2023-08-15T02:33:16.156Z,0.00
2023-08-15T02:34:11.269Z,0.00
2023-08-15T02:35:06.978Z,0.00
2023-08-15T02:36:02.178Z,0.00
2023-08-15T02:36:57.375Z,0.00
2023-08-15T02:37:53.162Z,0.00
2023-08-15T02:38:48.514Z,0.00
2023-08-15T02:39:44.266Z,0.00
2023-08-15T02:40:39.314Z,0.00
2023-08-15T02:41:34.677Z,0.00
2023-08-15T02:42:30.435Z,0.00
2023-08-15T02:43:25.679Z,0.00
2023-08-15T02:44:20.857Z,0.00
2023-08-15T02:45:17.165Z,0.00
2023-08-15T02:46:12.384Z,0.00
2023-08-15T02:47:08.164Z,0.00
2023-08-15T02:48:03.398Z,0.00
2023-08-15T02:48:58.651Z,0.00
2023-08-15T02:49:54.377Z,0.00
2023-08-15T02:50:49.611Z,0.00
2023-08-15T02:51:45.353Z,0.00
2023-08-15T02:52:40.542Z,0.00
2023-08-15T02:53:36.156Z,0.00
2023-08-15T02:54:31.533Z,0.00
2023-08-15T02:55:26.713Z,0.00
2023-08-15T02:56:21.946Z,0.00
2023-08-15T02:57:18.170Z,0.00
2023-08-15T02:58:13.411Z,0.00
2023-08-15T02:59:09.168Z,0.00
2023-08-15T03:00:04.388Z,0.00
2023-08-15T03:00:59.433Z,0.00
2023-08-15T03:01:55.360Z,0.00
2023-08-15T03:02:50.799Z,0.00
2023-08-15T03:03:46.391Z,0.00
2023-08-15T03:04:41.544Z,0.00
2023-08-15T03:05:36.768Z,0.00
2023-08-15T03:06:32.541Z,0.00
2023-08-15T03:07:27.782Z,0.00
2023-08-15T03:08:22.933Z,0.00
2023-08-15T03:09:19.299Z,0.00
2023-08-15T03:10:14.655Z,0.00
2023-08-15T03:11:10.415Z,0.00
2023-08-15T03:12:05.586Z,0.00
2023-08-15T03:13:00.861Z,0.00
2023-08-15T03:13:56.005Z,0.00
2023-08-15T03:14:51.355Z,0.00
2023-08-15T03:15:47.084Z,0.00
2023-08-15T03:16:42.394Z,0.00
2023-08-15T03:17:37.568Z,0.00
2023-08-15T03:18:34.024Z,0.00
2023-08-15T03:19:29.060Z,0.00
2023-08-15T03:20:24.962Z,0.00
2023-08-15T03:21:20.123Z,0.00
2023-08-15T03:22:15.338Z,0.00
2023-08-15T03:23:11.112Z,0.00
2023-08-15T03:24:06.320Z,0.00
2023-08-15T03:25:02.176Z,0.00
2023-08-15T03:25:57.235Z,0.00
2023-08-15T03:26:52.571Z,0.00
2023-08-15T03:27:48.409Z,0.00
2023-08-15T03:28:43.463Z,0.00
2023-08-15T03:29:38.773Z,0.00
2023-08-15T03:30:33.820Z,0.00
2023-08-15T03:31:29.042Z,0.00
2023-08-15T03:32:23.998Z,1.00
2023-08-15T03:33:19.395Z,1.00
2023-08-15T03:34:17.944Z,1.00
2023-08-15T03:35:13.032Z,0.00
2023-08-15T03:36:08.248Z,1.00
2023-08-15T03:37:03.439Z,1.00
2023-08-15T03:37:58.477Z,0.00
2023-08-15T03:38:53.544Z,1.00
2023-08-15T03:39:48.476Z,2.00
2023-08-15T03:40:43.535Z,1.00
2023-08-15T03:41:38.622Z,2.00
2023-08-15T03:42:33.688Z,2.00
2023-08-15T03:43:28.877Z,2.00
2023-08-15T03:44:23.982Z,3.00
2023-08-15T03:45:19.045Z,3.00
2023-08-15T03:46:14.209Z,4.00
2023-08-15T03:47:09.145Z,5.00
2023-08-15T03:48:04.220Z,5.00
2023-08-15T03:48:59.277Z,6.00
2023-08-15T03:49:54.369Z,6.00
2023-08-15T03:50:49.308Z,8.00
2023-08-15T03:51:47.456Z,9.00
2023-08-15T03:52:39.375Z,11.00
2023-08-15T03:53:34.522Z,12.00
2023-08-15T03:55:54.789Z,19.00
2023-08-15T03:56:49.845Z,21.00
2023-08-15T03:57:45.064Z,26.00
2023-08-15T03:58:40.294Z,30.00
2023-08-15T03:59:35.664Z,35.00
2023-08-15T04:00:30.720Z,38.00
2023-08-15T04:01:26.007Z,45.00
2023-08-15T04:02:21.120Z,50.00
2023-08-15T04:03:16.335Z,57.00
2023-08-15T04:04:11.808Z,60.00
2023-08-15T04:05:06.786Z,72.00
2023-08-15T04:06:02.123Z,75.00
2023-08-15T04:06:57.268Z,88.00
2023-08-15T04:07:52.461Z,92.00
2023-08-15T04:08:47.728Z,104.00
2023-08-15T04:09:42.998Z,117.00
2023-08-15T04:10:38.279Z,137.00
2023-08-15T04:11:33.571Z,136.00
2023-08-15T04:12:28.862Z,143.00
2023-08-15T04:13:24.123Z,164.00
2023-08-15T04:14:19.558Z,180.00
2023-08-15T04:15:14.720Z,194.00
2023-08-15T04:16:10.269Z,212.00
2023-08-15T04:17:05.337Z,226.00
2023-08-15T04:18:00.708Z,241.00
2023-08-15T04:18:56.011Z,263.00
2023-08-15T04:19:51.375Z,274.00
2023-08-15T04:20:46.723Z,301.00
2023-08-15T04:21:42.052Z,309.00
2023-08-15T04:22:37.376Z,340.00
2023-08-15T04:23:32.717Z,349.00
2023-08-15T04:24:28.090Z,382.00
2023-08-15T04:25:23.462Z,411.00
2023-08-15T04:26:18.647Z,427.00
2023-08-15T04:27:13.870Z,437.00
2023-08-15T04:28:09.115Z,465.00
2023-08-15T04:29:04.469Z,485.00
2023-08-15T04:29:59.807Z,485.00
2023-08-15T04:30:55.160Z,520.00
2023-08-15T04:31:50.407Z,533.00
2023-08-15T04:32:45.802Z,554.00
2023-08-15T04:33:40.934Z,544.00
2023-08-15T04:34:36.313Z,592.00
2023-08-15T04:35:31.631Z,605.00
2023-08-15T04:36:27.121Z,667.00
2023-08-15T04:37:22.655Z,649.00
2023-08-15T04:38:17.590Z,632.00
2023-08-15T04:39:12.917Z,670.00
2023-08-15T04:40:08.319Z,715.00
2023-08-15T04:41:03.458Z,746.00
2023-08-15T04:41:58.820Z,764.00
2023-08-15T04:42:54.130Z,768.00
2023-08-15T04:43:49.466Z,738.00
2023-08-15T04:44:44.790Z,704.00
2023-08-15T04:45:40.342Z,719.00
2023-08-15T04:46:35.520Z,734.00
2023-08-15T04:47:30.815Z,790.00
2023-08-15T04:48:25.964Z,801.00
2023-08-15T04:49:21.343Z,848.00
2023-08-15T04:50:16.679Z,886.00
2023-08-15T04:51:12.028Z,904.00
2023-08-15T04:52:07.237Z,938.00
2023-08-15T04:53:02.597Z,964.00
2023-08-15T04:53:57.901Z,977.00
2023-08-15T04:54:53.312Z,1059.00
2023-08-15T04:55:48.681Z,1061.00
2023-08-15T04:56:44.254Z,1122.00
2023-08-15T04:57:39.240Z,1207.00
2023-08-15T04:58:34.376Z,1249.00
2023-08-15T04:59:29.344Z,1258.00
2023-08-15T05:00:24.666Z,1235.00
2023-08-15T05:01:19.547Z,1326.00
2023-08-15T05:02:14.539Z,1382.00
2023-08-15T05:03:09.541Z,1391.00
2023-08-15T05:04:04.823Z,1426.00
2023-08-15T05:04:59.837Z,1481.00
2023-08-15T05:05:55.092Z,1494.00
2023-08-15T05:06:49.960Z,1549.00
2023-08-15T05:07:45.019Z,1611.00
2023-08-15T05:08:39.947Z,1625.00
2023-08-15T05:09:34.986Z,1674.00
2023-08-15T05:10:31.428Z,1740.00
2023-08-15T05:11:25.343Z,1797.00
2023-08-15T05:12:20.305Z,1808.00
2023-08-15T05:13:15.430Z,1897.00
2023-08-15T05:14:10.474Z,1976.00
2023-08-15T05:15:05.593Z,2057.00
2023-08-15T05:16:00.696Z,2058.00
2023-08-15T05:16:55.745Z,2173.00
2023-08-15T05:17:51.308Z,2096.00
2023-08-15T05:18:46.649Z,2188.00
2023-08-15T05:19:42.090Z,2188.00
2023-08-15T05:20:37.855Z,2225.00
2023-08-15T05:21:32.944Z,2194.00
2023-08-15T05:22:28.195Z,2150.00
2023-08-15T05:23:23.689Z,2213.00
2023-08-15T05:24:19.108Z,2217.00
2023-08-15T05:25:14.756Z,2248.00
2023-08-15T05:26:09.945Z,2218.00
2023-08-15T05:27:09.459Z,2302.00
2023-08-15T05:28:04.735Z,2293.00
2023-08-15T05:29:00.327Z,2331.00
2023-08-15T05:29:55.375Z,2341.00
2023-08-15T05:30:50.609Z,2314.00
2023-08-15T05:31:45.556Z,2355.00
2023-08-15T05:32:40.664Z,2389.00
2023-08-15T05:33:35.678Z,2428.00
2023-08-15T05:34:30.733Z,2454.00
2023-08-15T05:35:25.762Z,2425.00
2023-08-15T05:36:20.835Z,2310.00
2023-08-15T05:37:15.863Z,2284.00
2023-08-15T05:38:10.909Z,2243.00
2023-08-15T05:39:05.948Z,2245.00
2023-08-15T05:40:03.476Z,2130.00
2023-08-15T05:40:56.055Z,2167.00
2023-08-15T05:41:51.103Z,2225.00
2023-08-15T05:42:46.408Z,2268.00
2023-08-15T05:43:41.767Z,2257.00
2023-08-15T05:44:37.173Z,2267.00
2023-08-15T05:45:32.666Z,2310.00
2023-08-15T05:46:27.993Z,2395.00
2023-08-15T05:47:23.635Z,2420.00
2023-08-15T05:48:18.845Z,2508.00
2023-08-15T05:49:14.191Z,2644.00
2023-08-15T05:50:09.593Z,2554.00
2023-08-15T05:51:05.253Z,2650.00
2023-08-15T05:52:00.409Z,2623.00
2023-08-15T05:52:55.868Z,2754.00
2023-08-15T05:53:50.897Z,2823.00
2023-08-15T05:54:46.085Z,2990.00
2023-08-15T05:55:41.415Z,3290.00
2023-08-15T05:56:36.380Z,3477.00
2023-08-15T05:57:31.412Z,3767.00
2023-08-15T05:58:26.556Z,4093.00
2023-08-15T05:59:21.438Z,4519.00
2023-08-15T06:00:16.521Z,5014.00
2023-08-15T06:01:11.608Z,5430.00
2023-08-15T06:02:07.310Z,5673.00
2023-08-15T06:03:02.420Z,5845.00
2023-08-15T06:03:57.450Z,5976.00
2023-08-15T06:04:52.368Z,6023.00
2023-08-15T06:05:47.626Z,6037.00
2023-08-15T06:06:42.500Z,5999.00
2023-08-15T06:07:37.589Z,6185.00
2023-08-15T06:08:32.720Z,6652.00
2023-08-15T06:09:27.780Z,6665.00
2023-08-15T06:10:22.993Z,6309.00
2023-08-15T06:11:17.926Z,6270.00
2023-08-15T06:12:12.936Z,6164.00
2023-08-15T06:13:08.120Z,6149.00
2023-08-15T06:14:03.432Z,6025.00
2023-08-15T06:14:58.885Z,5881.00
2023-08-15T06:15:54.350Z,5834.00
2023-08-15T06:16:49.647Z,5786.00
2023-08-15T06:17:44.981Z,5712.00
2023-08-15T06:18:40.342Z,5709.00
2023-08-15T06:19:35.637Z,5766.00
2023-08-15T06:20:31.235Z,5986.00
2023-08-15T06:21:26.563Z,6720.00
2023-08-15T06:22:21.888Z,6906.00
2023-08-15T06:23:17.278Z,7338.00
2023-08-15T06:24:12.684Z,7690.00
2023-08-15T06:25:08.131Z,7909.00
2023-08-15T06:26:03.478Z,7791.00
2023-08-15T06:26:58.530Z,7603.00
2023-08-15T06:27:53.581Z,7532.00
2023-08-15T06:28:48.644Z,7301.00
2023-08-15T06:29:45.469Z,7110.00
2023-08-15T06:30:40.490Z,6753.00
2023-08-15T06:31:35.868Z,6529.00
2023-08-15T06:32:30.792Z,6245.00
2023-08-15T06:33:25.875Z,5998.00
2023-08-15T06:34:20.907Z,5811.00
2023-08-15T06:35:15.975Z,5784.00
2023-08-15T06:36:11.036Z,5825.00
2023-08-15T06:37:06.400Z,5934.00
2023-08-15T06:38:01.411Z,6073.00
2023-08-15T06:38:56.502Z,6169.00
2023-08-15T06:39:51.476Z,6264.00
2023-08-15T06:40:46.631Z,6201.00
2023-08-15T06:41:41.675Z,6125.00
2023-08-15T06:42:37.369Z,6298.00
2023-08-15T06:43:32.263Z,6661.00
2023-08-15T06:44:27.709Z,6775.00
2023-08-15T06:45:22.843Z,6418.00
2023-08-15T06:46:18.207Z,6386.00
2023-08-15T06:47:13.561Z,6287.00
2023-08-15T06:48:08.959Z,6293.00
2023-08-15T06:49:04.165Z,6295.00
2023-08-15T06:49:59.582Z,6818.00
2023-08-15T06:50:54.909Z,6567.00
2023-08-15T06:51:50.381Z,6742.00
2023-08-15T06:52:45.852Z,7124.00
2023-08-15T06:53:41.075Z,7342.00
2023-08-15T06:54:36.392Z,7421.00
2023-08-15T06:55:31.975Z,7591.00
2023-08-15T06:56:27.000Z,7700.00
2023-08-15T06:57:22.276Z,7840.00
2023-08-15T06:58:17.169Z,8070.00
2023-08-15T06:59:12.258Z,8253.00
2023-08-15T07:00:07.289Z,8349.00
2023-08-15T07:01:02.577Z,8615.00
2023-08-15T07:01:57.406Z,8859.00
2023-08-15T07:02:52.564Z,8936.00
2023-08-15T07:03:47.601Z,9014.00
2023-08-15T07:04:42.662Z,9187.00
2023-08-15T07:05:37.679Z,9438.00
2023-08-15T07:06:32.730Z,9352.00
2023-08-15T07:07:27.771Z,9264.00
2023-08-15T07:08:22.888Z,9290.00
2023-08-15T07:09:18.485Z,9371.00
2023-08-15T07:10:13.932Z,9550.00
2023-08-15T07:11:09.211Z,9674.00
2023-08-15T07:12:04.725Z,10458.00
2023-08-15T07:13:00.154Z,10578.00
2023-08-15T07:13:55.522Z,11085.00
2023-08-15T07:14:50.923Z,11496.00
2023-08-15T07:15:46.291Z,12141.00
2023-08-15T07:16:41.826Z,15041.00
2023-08-15T07:17:37.160Z,14605.00
2023-08-15T07:18:32.694Z,14037.00
2023-08-15T07:19:27.987Z,14072.00
2023-08-15T07:20:23.318Z,14423.00
2023-08-15T07:21:18.947Z,15803.00
2023-08-15T07:22:14.333Z,19896.00
2023-08-15T07:23:09.941Z,20904.00
2023-08-15T07:24:05.295Z,21904.00
2023-08-15T07:25:00.733Z,24736.00
2023-08-15T07:25:55.728Z,33256.00
2023-08-15T07:26:50.834Z,27792.00
2023-08-15T07:27:45.929Z,17840.00
2023-08-15T07:28:41.099Z,17616.00
2023-08-15T07:29:36.083Z,16648.00
2023-08-15T07:30:31.131Z,16912.00
2023-08-15T07:31:26.356Z,17024.00
2023-08-15T07:32:24.399Z,16984.00
2023-08-15T07:33:18.684Z,15569.00
2023-08-15T07:34:13.935Z,15990.00
2023-08-15T07:35:08.811Z,15486.00
2023-08-15T07:36:03.893Z,15055.00
2023-08-15T07:36:58.981Z,14844.00
2023-08-15T07:37:54.250Z,14828.00
2023-08-15T07:38:49.396Z,14398.00
2023-08-15T07:39:44.418Z,14264.00
2023-08-15T07:40:39.916Z,14986.00
2023-08-15T07:41:36.533Z,15375.00
2023-08-15T07:42:32.013Z,13715.00
2023-08-15T07:43:27.425Z,13635.00
2023-08-15T07:44:22.803Z,13332.00
2023-08-15T07:45:18.245Z,13299.00
2023-08-15T07:46:13.614Z,13950.00
2023-08-15T07:47:09.131Z,14315.00
2023-08-15T07:48:04.520Z,12858.00
2023-08-15T07:49:01.062Z,11383.00
2023-08-15T07:49:54.640Z,10441.00
2023-08-15T07:50:49.926Z,10060.00
2023-08-15T07:51:44.972Z,9960.00
2023-08-15T07:52:40.019Z,9808.00
2023-08-15T07:53:35.302Z,10211.00
2023-08-15T07:54:30.150Z,10285.00
2023-08-15T07:55:29.332Z,10492.00
2023-08-15T07:56:22.708Z,10999.00
2023-08-15T07:57:17.659Z,11104.00
2023-08-15T07:58:12.731Z,11067.00
2023-08-15T07:59:07.810Z,11363.00
2023-08-15T08:00:03.062Z,11695.00
2023-08-15T08:00:58.090Z,12040.00
2023-08-15T08:01:53.281Z,12182.00
2023-08-15T08:02:48.499Z,12523.00
2023-08-15T08:03:44.199Z,13101.00
2023-08-15T08:04:39.578Z,14673.00
2023-08-15T08:05:35.029Z,14548.00
2023-08-15T08:07:25.874Z,13229.00
2023-08-15T08:08:21.250Z,12748.00
2023-08-15T08:09:16.946Z,11929.00
2023-08-15T08:10:12.157Z,11638.00
2023-08-15T08:11:07.558Z,11906.00
2023-08-15T08:12:02.905Z,12261.00
2023-08-15T08:12:58.320Z,12176.00
2023-08-15T08:13:53.581Z,12336.00
2023-08-15T08:14:57.205Z,12591.00
2023-08-15T08:15:44.802Z,12734.00
2023-08-15T08:16:38.847Z,12911.00
2023-08-15T08:17:33.921Z,13223.00
2023-08-15T08:18:33.192Z,13840.00
2023-08-15T08:19:28.157Z,14219.00
2023-08-15T08:20:23.180Z,15381.00
2023-08-15T08:21:18.146Z,16293.00
2023-08-15T08:22:13.239Z,16984.00
2023-08-15T08:23:08.206Z,22128.00
2023-08-15T08:24:03.254Z,17664.00
2023-08-15T08:24:58.228Z,18576.00
2023-08-15T08:25:53.344Z,18672.00
2023-08-15T08:26:48.437Z,18904.00
2023-08-15T08:27:43.529Z,20784.00
2023-08-15T08:28:38.551Z,20472.00
2023-08-15T08:29:34.077Z,20048.00
2023-08-15T08:30:30.793Z,20976.00
2023-08-15T08:31:24.917Z,21840.00
2023-08-15T08:32:20.926Z,25888.00
2023-08-15T08:33:16.148Z,28144.00
2023-08-15T08:34:11.600Z,28264.00
2023-08-15T08:35:07.081Z,27568.00
2023-08-15T08:36:02.672Z,47208.00
2023-08-15T08:36:57.961Z,57160.00
2023-08-15T08:37:53.575Z,47504.00
2023-08-15T08:38:48.866Z,65535.00
2023-08-15T08:39:44.267Z,59816.00
2023-08-15T08:40:39.745Z,46104.00
2023-08-15T08:41:35.166Z,47464.00
2023-08-15T08:42:30.609Z,65535.00
2023-08-15T08:43:26.018Z,65535.00
2023-08-15T08:44:21.788Z,65535.00
2023-08-15T08:45:16.778Z,65535.00
2023-08-15T08:46:11.884Z,58720.00
2023-08-15T08:47:06.909Z,56560.00
2023-08-15T08:48:02.177Z,63192.00
2023-08-15T08:48:57.075Z,65535.00
2023-08-15T08:49:52.254Z,65535.00
2023-08-15T08:50:47.287Z,29984.00
2023-08-15T08:51:42.973Z,26144.00
2023-08-15T08:52:38.396Z,20848.00
2023-08-15T08:53:33.804Z,20144.00
2023-08-15T08:54:47.101Z,20488.00
2023-08-15T08:55:26.265Z,20928.00
2023-08-15T08:56:20.817Z,19632.00
2023-08-15T08:57:16.415Z,17240.00
2023-08-15T08:58:11.712Z,17456.00
2023-08-15T08:59:07.666Z,17336.00
2023-08-15T09:00:03.179Z,16512.00
2023-08-15T09:00:58.615Z,15936.00
2023-08-15T09:01:54.800Z,16151.00
2023-08-15T09:02:50.379Z,16504.00
2023-08-15T09:03:46.230Z,17504.00
2023-08-15T09:04:41.761Z,16680.00
2023-08-15T09:05:37.142Z,17656.00
2023-08-15T09:06:32.965Z,18184.00
2023-08-15T09:07:28.345Z,19328.00
2023-08-15T09:08:24.278Z,20536.00
2023-08-15T09:09:19.549Z,20712.00
2023-08-15T09:10:14.982Z,20824.00
2023-08-15T09:11:10.661Z,22488.00
2023-08-15T09:12:06.237Z,26864.00
2023-08-15T09:13:01.713Z,24936.00
2023-08-15T09:13:58.065Z,28136.00
2023-08-15T09:14:53.551Z,33784.00
2023-08-15T09:15:49.377Z,37600.00
2023-08-15T09:16:44.809Z,65535.00
2023-08-15T09:17:40.290Z,46864.00
2023-08-15T09:18:35.932Z,25688.00
2023-08-15T09:19:31.337Z,22968.00
2023-08-15T09:20:27.365Z,22608.00
2023-08-15T09:21:22.670Z,21984.00
2023-08-15T09:22:18.074Z,22144.00
2023-08-15T09:23:13.852Z,20072.00
2023-08-15T09:24:09.317Z,20592.00
2023-08-15T09:25:04.875Z,19824.00
2023-08-15T09:26:00.988Z,19536.00
2023-08-15T09:26:56.341Z,19176.00
2023-08-15T09:27:52.237Z,19992.00
2023-08-15T09:28:47.682Z,19632.00
2023-08-15T09:29:43.203Z,20272.00
2023-08-15T09:30:39.190Z,22152.00
2023-08-15T09:31:34.508Z,22064.00
2023-08-15T09:32:30.314Z,22752.00
2023-08-15T09:33:25.661Z,23864.00
2023-08-15T09:34:21.048Z,24072.00
2023-08-15T09:35:16.839Z,24456.00
2023-08-15T09:36:12.219Z,24600.00
2023-08-15T09:37:07.769Z,25800.00
2023-08-15T09:38:03.884Z,30448.00
2023-08-15T09:38:59.447Z,26872.00
2023-08-15T09:39:55.301Z,25976.00
2023-08-15T09:40:50.783Z,28256.00
2023-08-15T09:41:46.263Z,34168.00
2023-08-15T09:42:42.064Z,29656.00
2023-08-15T09:43:37.495Z,26912.00
2023-08-15T09:44:33.366Z,23888.00
2023-08-15T09:45:28.698Z,23176.00
2023-08-15T09:46:24.233Z,23400.00
2023-08-15T09:47:20.042Z,26464.00
2023-08-15T09:48:15.215Z,58304.00
2023-08-15T09:49:10.636Z,33168.00
2023-08-15T09:50:06.930Z,47424.00
2023-08-15T09:51:02.353Z,41992.00
2023-08-15T09:51:58.169Z,32976.00
2023-08-15T09:52:53.584Z,26552.00
2023-08-15T09:53:49.160Z,29768.00
2023-08-15T09:54:44.607Z,25952.00
2023-08-15T09:55:40.056Z,22128.00
2023-08-15T09:56:36.295Z,21264.00
2023-08-15T09:57:31.749Z,20768.00
2023-08-15T09:58:27.615Z,20176.00
2023-08-15T09:59:23.008Z,19720.00
2023-08-15T10:00:19.023Z,19464.00
2023-08-15T10:01:14.516Z,20216.00
2023-08-15T10:02:09.890Z,19592.00
2023-08-15T10:03:05.730Z,19768.00
2023-08-15T10:05:24.301Z,20400.00
2023-08-15T10:06:19.551Z,20872.00
2023-08-15T10:07:15.012Z,21360.00
2023-08-15T10:08:10.448Z,21456.00
2023-08-15T10:09:06.026Z,21472.00
2023-08-15T10:10:01.660Z,22192.00
2023-08-15T10:10:57.167Z,23976.00
2023-08-15T10:11:52.631Z,26160.00
2023-08-15T10:12:48.006Z,53984.00
2023-08-15T10:13:43.473Z,65535.00
2023-08-15T10:14:38.861Z,64912.00
2023-08-15T10:15:34.369Z,46160.00
2023-08-15T10:16:29.803Z,62344.00
2023-08-15T10:17:25.694Z,51240.00
2023-08-15T10:18:20.909Z,65408.00
2023-08-15T10:19:16.247Z,59032.00
2023-08-15T10:20:11.995Z,42736.00
2023-08-15T10:21:07.245Z,40080.00
2023-08-15T10:22:02.759Z,32256.00
2023-08-15T10:22:58.186Z,31608.00
2023-08-15T10:23:53.693Z,36888.00
2023-08-15T10:24:49.153Z,56712.00
2023-08-15T10:25:44.547Z,37760.00
2023-08-15T10:26:39.759Z,32560.00
2023-08-15T10:27:35.123Z,29472.00
2023-08-15T10:28:30.570Z,31064.00
2023-08-15T10:29:26.347Z,45232.00
2023-08-15T10:30:21.572Z,39944.00
2023-08-15T10:31:17.251Z,28528.00
2023-08-15T10:32:12.756Z,28840.00
2023-08-15T10:33:08.270Z,28848.00
2023-08-15T10:34:03.729Z,34376.00
2023-08-15T10:34:59.216Z,65535.00
2023-08-15T10:35:54.571Z,30416.00
2023-08-15T10:36:49.945Z,31096.00
2023-08-15T10:37:45.437Z,27984.00
2023-08-15T10:38:40.988Z,27744.00
2023-08-15T10:39:36.473Z,28848.00
2023-08-15T10:40:32.147Z,62032.00
2023-08-15T10:41:27.496Z,58088.00
2023-08-15T10:42:23.049Z,51424.00
2023-08-15T10:43:18.322Z,30936.00
2023-08-15T10:44:13.820Z,29344.00
2023-08-15T10:45:09.305Z,30664.00
2023-08-15T10:46:05.084Z,32392.00
2023-08-15T10:47:00.534Z,49120.00
2023-08-15T10:47:56.119Z,61320.00
2023-08-15T10:49:02.770Z,43168.00
2023-08-15T10:49:48.082Z,36416.00
2023-08-15T10:50:42.485Z,38968.00
2023-08-15T10:51:38.143Z,32504.00
2023-08-15T10:52:33.617Z,26064.00
2023-08-15T10:53:29.015Z,21432.00
2023-08-15T10:54:24.394Z,19928.00
2023-08-15T10:55:19.855Z,16512.00
2023-08-15T10:56:15.324Z,16704.00
2023-08-15T10:57:10.768Z,15026.00
2023-08-15T10:58:06.217Z,14058.00
2023-08-15T10:59:01.661Z,13306.00
2023-08-15T10:59:57.040Z,12701.00
2023-08-15T11:00:52.537Z,12342.00
2023-08-15T11:01:48.391Z,11972.00
2023-08-15T11:02:43.646Z,11829.00
2023-08-15T11:03:38.988Z,10990.00
2023-08-15T11:04:34.387Z,10796.00
2023-08-15T11:05:29.849Z,11020.00
2023-08-15T11:06:25.492Z,10622.00
2023-08-15T11:07:20.958Z,10402.00
2023-08-15T11:08:16.285Z,10235.00
2023-08-15T11:09:11.869Z,10184.00
2023-08-15T11:10:07.440Z,10325.00
2023-08-15T11:11:02.957Z,10141.00
2023-08-15T11:11:58.524Z,9524.00
2023-08-15T11:12:53.942Z,8923.00
2023-08-15T11:13:49.344Z,8404.00
2023-08-15T11:14:44.694Z,8002.00
2023-08-15T11:15:40.244Z,7258.00
2023-08-15T11:16:35.988Z,7435.00
2023-08-15T11:17:31.258Z,7038.00
2023-08-15T11:18:26.631Z,6972.00
2023-08-15T11:19:22.046Z,6684.00
2023-08-15T11:20:17.399Z,6510.00
2023-08-15T11:21:13.065Z,6436.00
2023-08-15T11:22:08.514Z,6354.00
2023-08-15T11:23:03.867Z,6365.00
2023-08-15T11:23:59.366Z,6585.00
2023-08-15T11:24:54.806Z,6107.00
2023-08-15T11:25:50.074Z,6028.00
2023-08-15T11:26:45.755Z,5782.00
2023-08-15T11:27:40.866Z,5643.00
2023-08-15T11:28:36.410Z,5496.00
2023-08-15T11:29:31.783Z,5364.00